sensor_id;sensor_type;location;lat;lon;timestamp;P1;durP1;ratioP1;P2;durP2;ratioP2
39772;SDS011;25451;51.960;6.250;2022-08-25T00:01:32;5.18;;;2.80;;
39772;SDS011;25451;51.960;6.250;2022-08-25T00:04:04;3.40;;;2.50;;
39772;SDS011;25451;51.960;6.250;2022-08-25T00:06:32;4.93;;;3.08;;
39772;SDS011;25451;51.960;6.250;2022-08-25T00:08:58;5.60;;;3.20;;
39772;SDS011;25451;51.960;6.250;2022-08-25T00:11:25;6.20;;;3.25;;
39772;SDS011;25451;51.960;6.250;2022-08-25T00:13:54;5.10;;;2.65;;
39772;SDS011;25451;51.960;6.250;2022-08-25T00:16:22;6.40;;;2.73;;
39772;SDS011;25451;51.960;6.250;2022-08-25T00:18:49;5.18;;;3.10;;
39772;SDS011;25451;51.960;6.250;2022-08-25T00:21:18;7.85;;;3.08;;
39772;SDS011;25451;51.960;6.250;2022-08-25T00:23:44;7.53;;;3.20;;
39772;SDS011;25451;51.960;6.250;2022-08-25T00:26:11;7.03;;;3.03;;
39772;SDS011;25451;51.960;6.250;2022-08-25T00:28:37;4.17;;;2.70;;
39772;SDS011;25451;51.960;6.250;2022-08-25T00:31:03;5.15;;;3.05;;
39772;SDS011;25451;51.960;6.250;2022-08-25T00:33:29;4.85;;;3.45;;
39772;SDS011;25451;51.960;6.250;2022-08-25T00:35:55;5.07;;;3.00;;
39772;SDS011;25451;51.960;6.250;2022-08-25T00:38:22;5.57;;;3.00;;
39772;SDS011;25451;51.960;6.250;2022-08-25T00:40:48;4.00;;;2.72;;
39772;SDS011;25451;51.960;6.250;2022-08-25T00:43:52;6.30;;;3.10;;
39772;SDS011;25451;51.960;6.250;2022-08-25T00:46:26;4.20;;;2.85;;
39772;SDS011;25451;51.960;6.250;2022-08-25T00:48:58;3.90;;;2.72;;
39772;SDS011;25451;51.960;6.250;2022-08-25T00:51:29;4.00;;;2.80;;
39772;SDS011;25451;51.960;6.250;2022-08-25T00:54:07;4.53;;;3.20;;
39772;SDS011;25451;51.960;6.250;2022-08-25T00:56:37;4.88;;;2.83;;
39772;SDS011;25451;51.960;6.250;2022-08-25T00:59:02;4.70;;;2.73;;
39772;SDS011;25451;51.960;6.250;2022-08-25T01:01:29;4.65;;;2.90;;
39772;SDS011;25451;51.960;6.250;2022-08-25T01:03:54;4.40;;;3.00;;
39772;SDS011;25451;51.960;6.250;2022-08-25T01:06:20;4.67;;;3.20;;
39772;SDS011;25451;51.960;6.250;2022-08-25T01:08:45;5.28;;;3.13;;
39772;SDS011;25451;51.960;6.250;2022-08-25T01:11:11;5.10;;;3.00;;
39772;SDS011;25451;51.960;6.250;2022-08-25T01:13:41;4.88;;;3.00;;
39772;SDS011;25451;51.960;6.250;2022-08-25T01:16:10;5.30;;;3.00;;
39772;SDS011;25451;51.960;6.250;2022-08-25T01:18:51;4.15;;;2.83;;
39772;SDS011;25451;51.960;6.250;2022-08-25T01:21:25;6.55;;;2.80;;
39772;SDS011;25451;51.960;6.250;2022-08-25T01:23:53;5.60;;;3.00;;
39772;SDS011;25451;51.960;6.250;2022-08-25T01:26:23;4.35;;;3.25;;
39772;SDS011;25451;51.960;6.250;2022-08-25T01:28:51;4.55;;;2.60;;
39772;SDS011;25451;51.960;6.250;2022-08-25T01:31:35;5.07;;;3.10;;
39772;SDS011;25451;51.960;6.250;2022-08-25T01:34:02;9.60;;;4.75;;
39772;SDS011;25451;51.960;6.250;2022-08-25T01:36:28;3.60;;;2.70;;
39772;SDS011;25451;51.960;6.250;2022-08-25T01:38:54;4.35;;;2.88;;
39772;SDS011;25451;51.960;6.250;2022-08-25T01:41:30;4.53;;;2.88;;
39772;SDS011;25451;51.960;6.250;2022-08-25T01:44:18;4.13;;;3.08;;
39772;SDS011;25451;51.960;6.250;2022-08-25T01:46:43;5.07;;;3.20;;
39772;SDS011;25451;51.960;6.250;2022-08-25T01:49:09;4.57;;;2.93;;
39772;SDS011;25451;51.960;6.250;2022-08-25T01:51:47;5.00;;;2.93;;
39772;SDS011;25451;51.960;6.250;2022-08-25T01:54:16;6.07;;;2.80;;
39772;SDS011;25451;51.960;6.250;2022-08-25T01:56:42;5.45;;;3.35;;
39772;SDS011;25451;51.960;6.250;2022-08-25T01:59:08;5.37;;;3.00;;
39772;SDS011;25451;51.960;6.250;2022-08-25T02:01:33;4.83;;;2.70;;
39772;SDS011;25451;51.960;6.250;2022-08-25T02:03:59;4.32;;;3.05;;
39772;SDS011;25451;51.960;6.250;2022-08-25T02:06:25;4.80;;;3.30;;
39772;SDS011;25451;51.960;6.250;2022-08-25T02:08:54;5.20;;;2.70;;
39772;SDS011;25451;51.960;6.250;2022-08-25T02:11:22;5.47;;;3.00;;
39772;SDS011;25451;51.960;6.250;2022-08-25T02:13:48;3.97;;;2.80;;
39772;SDS011;25451;51.960;6.250;2022-08-25T02:16:17;5.45;;;2.75;;
39772;SDS011;25451;51.960;6.250;2022-08-25T02:18:46;4.70;;;2.90;;
39772;SDS011;25451;51.960;6.250;2022-08-25T02:21:12;6.30;;;2.80;;
39772;SDS011;25451;51.960;6.250;2022-08-25T02:23:39;5.68;;;2.83;;
39772;SDS011;25451;51.960;6.250;2022-08-25T02:26:07;5.72;;;3.00;;
39772;SDS011;25451;51.960;6.250;2022-08-25T02:28:33;5.77;;;2.97;;
39772;SDS011;25451;51.960;6.250;2022-08-25T02:31:01;6.30;;;3.38;;
39772;SDS011;25451;51.960;6.250;2022-08-25T02:33:26;3.70;;;2.57;;
39772;SDS011;25451;51.960;6.250;2022-08-25T02:35:51;6.47;;;3.40;;
39772;SDS011;25451;51.960;6.250;2022-08-25T02:38:17;5.30;;;3.00;;
39772;SDS011;25451;51.960;6.250;2022-08-25T02:40:42;4.47;;;2.90;;
39772;SDS011;25451;51.960;6.250;2022-08-25T02:43:08;5.00;;;3.00;;
39772;SDS011;25451;51.960;6.250;2022-08-25T02:45:33;5.97;;;3.00;;
39772;SDS011;25451;51.960;6.250;2022-08-25T02:47:59;4.40;;;2.70;;
39772;SDS011;25451;51.960;6.250;2022-08-25T02:50:24;6.63;;;2.80;;
39772;SDS011;25451;51.960;6.250;2022-08-25T02:52:50;6.47;;;3.10;;
39772;SDS011;25451;51.960;6.250;2022-08-25T02:55:16;5.93;;;3.10;;
39772;SDS011;25451;51.960;6.250;2022-08-25T02:57:42;6.57;;;3.00;;
39772;SDS011;25451;51.960;6.250;2022-08-25T03:00:11;7.13;;;2.70;;
39772;SDS011;25451;51.960;6.250;2022-08-25T03:02:38;4.53;;;2.78;;
39772;SDS011;25451;51.960;6.250;2022-08-25T03:05:05;5.65;;;2.78;;
39772;SDS011;25451;51.960;6.250;2022-08-25T03:07:32;4.47;;;2.75;;
39772;SDS011;25451;51.960;6.250;2022-08-25T03:09:58;8.07;;;3.03;;
39772;SDS011;25451;51.960;6.250;2022-08-25T03:12:23;4.88;;;2.88;;
39772;SDS011;25451;51.960;6.250;2022-08-25T03:14:48;5.90;;;2.80;;
39772;SDS011;25451;51.960;6.250;2022-08-25T03:17:14;5.90;;;3.00;;
39772;SDS011;25451;51.960;6.250;2022-08-25T03:19:39;7.10;;;3.00;;
39772;SDS011;25451;51.960;6.250;2022-08-25T03:22:04;6.23;;;3.10;;
39772;SDS011;25451;51.960;6.250;2022-08-25T03:24:30;5.05;;;2.92;;
39772;SDS011;25451;51.960;6.250;2022-08-25T03:26:56;5.30;;;2.90;;
39772;SDS011;25451;51.960;6.250;2022-08-25T03:29:22;5.57;;;2.93;;
39772;SDS011;25451;51.960;6.250;2022-08-25T03:31:53;7.18;;;3.10;;
39772;SDS011;25451;51.960;6.250;2022-08-25T03:34:21;4.53;;;2.65;;
39772;SDS011;25451;51.960;6.250;2022-08-25T03:36:48;5.07;;;2.60;;
39772;SDS011;25451;51.960;6.250;2022-08-25T03:39:15;4.63;;;2.80;;
39772;SDS011;25451;51.960;6.250;2022-08-25T03:41:42;5.03;;;2.60;;
39772;SDS011;25451;51.960;6.250;2022-08-25T03:44:08;5.90;;;2.80;;
39772;SDS011;25451;51.960;6.250;2022-08-25T03:46:42;5.97;;;2.75;;
39772;SDS011;25451;51.960;6.250;2022-08-25T03:49:11;6.88;;;2.83;;
39772;SDS011;25451;51.960;6.250;2022-08-25T03:51:42;5.38;;;2.33;;
39772;SDS011;25451;51.960;6.250;2022-08-25T03:54:14;5.22;;;2.80;;
39772;SDS011;25451;51.960;6.250;2022-08-25T03:56:40;4.73;;;2.93;;
39772;SDS011;25451;51.960;6.250;2022-08-25T03:59:06;4.18;;;2.75;;
39772;SDS011;25451;51.960;6.250;2022-08-25T04:01:35;5.90;;;2.88;;
39772;SDS011;25451;51.960;6.250;2022-08-25T04:04:02;5.53;;;2.73;;
39772;SDS011;25451;51.960;6.250;2022-08-25T04:06:28;4.97;;;2.75;;
39772;SDS011;25451;51.960;6.250;2022-08-25T04:08:54;4.93;;;3.03;;
39772;SDS011;25451;51.960;6.250;2022-08-25T04:11:21;4.13;;;2.70;;
39772;SDS011;25451;51.960;6.250;2022-08-25T04:13:47;5.03;;;2.83;;
39772;SDS011;25451;51.960;6.250;2022-08-25T04:16:15;5.18;;;2.80;;
39772;SDS011;25451;51.960;6.250;2022-08-25T04:18:44;5.82;;;2.90;;
39772;SDS011;25451;51.960;6.250;2022-08-25T04:21:10;7.93;;;2.95;;
39772;SDS011;25451;51.960;6.250;2022-08-25T04:23:37;5.47;;;3.37;;
39772;SDS011;25451;51.960;6.250;2022-08-25T04:26:11;6.28;;;3.08;;
39772;SDS011;25451;51.960;6.250;2022-08-25T04:28:38;5.00;;;2.78;;
39772;SDS011;25451;51.960;6.250;2022-08-25T04:31:05;4.75;;;2.60;;
39772;SDS011;25451;51.960;6.250;2022-08-25T04:33:31;5.28;;;3.00;;
39772;SDS011;25451;51.960;6.250;2022-08-25T04:35:57;7.50;;;2.63;;
39772;SDS011;25451;51.960;6.250;2022-08-25T04:38:23;6.13;;;2.73;;
39772;SDS011;25451;51.960;6.250;2022-08-25T04:40:54;6.73;;;2.90;;
39772;SDS011;25451;51.960;6.250;2022-08-25T04:43:21;5.18;;;2.78;;
39772;SDS011;25451;51.960;6.250;2022-08-25T04:45:46;4.50;;;3.00;;
39772;SDS011;25451;51.960;6.250;2022-08-25T04:48:11;4.47;;;2.70;;
39772;SDS011;25451;51.960;6.250;2022-08-25T04:50:37;4.70;;;2.60;;
39772;SDS011;25451;51.960;6.250;2022-08-25T04:53:03;5.82;;;2.70;;
39772;SDS011;25451;51.960;6.250;2022-08-25T04:55:28;4.43;;;2.90;;
39772;SDS011;25451;51.960;6.250;2022-08-25T04:57:53;4.87;;;2.67;;
39772;SDS011;25451;51.960;6.250;2022-08-25T05:00:19;5.73;;;2.87;;
39772;SDS011;25451;51.960;6.250;2022-08-25T05:02:44;5.10;;;2.70;;
39772;SDS011;25451;51.960;6.250;2022-08-25T05:05:09;6.30;;;2.90;;
39772;SDS011;25451;51.960;6.250;2022-08-25T05:07:35;4.93;;;3.00;;
39772;SDS011;25451;51.960;6.250;2022-08-25T05:10:01;6.18;;;2.90;;
39772;SDS011;25451;51.960;6.250;2022-08-25T05:12:26;6.10;;;2.80;;
39772;SDS011;25451;51.960;6.250;2022-08-25T05:14:52;4.93;;;2.50;;
39772;SDS011;25451;51.960;6.250;2022-08-25T05:17:18;5.07;;;2.63;;
39772;SDS011;25451;51.960;6.250;2022-08-25T05:19:43;5.53;;;2.80;;
39772;SDS011;25451;51.960;6.250;2022-08-25T05:22:08;5.90;;;3.13;;
39772;SDS011;25451;51.960;6.250;2022-08-25T05:24:34;5.03;;;2.63;;
39772;SDS011;25451;51.960;6.250;2022-08-25T05:27:00;5.17;;;3.40;;
39772;SDS011;25451;51.960;6.250;2022-08-25T05:29:27;5.38;;;2.78;;
39772;SDS011;25451;51.960;6.250;2022-08-25T05:31:53;4.57;;;2.87;;
39772;SDS011;25451;51.960;6.250;2022-08-25T05:34:18;5.80;;;2.83;;
39772;SDS011;25451;51.960;6.250;2022-08-25T05:36:44;4.97;;;2.63;;
39772;SDS011;25451;51.960;6.250;2022-08-25T05:39:09;4.93;;;2.47;;
39772;SDS011;25451;51.960;6.250;2022-08-25T05:41:35;6.03;;;2.80;;
39772;SDS011;25451;51.960;6.250;2022-08-25T05:44:01;4.20;;;2.85;;
39772;SDS011;25451;51.960;6.250;2022-08-25T05:46:26;4.53;;;2.60;;
39772;SDS011;25451;51.960;6.250;2022-08-25T05:48:52;4.90;;;2.80;;
39772;SDS011;25451;51.960;6.250;2022-08-25T05:51:17;4.93;;;2.90;;
39772;SDS011;25451;51.960;6.250;2022-08-25T05:53:44;4.57;;;2.90;;
39772;SDS011;25451;51.960;6.250;2022-08-25T05:56:11;8.40;;;3.10;;
39772;SDS011;25451;51.960;6.250;2022-08-25T05:58:38;6.20;;;3.20;;
39772;SDS011;25451;51.960;6.250;2022-08-25T06:01:04;4.95;;;3.10;;
39772;SDS011;25451;51.960;6.250;2022-08-25T06:03:48;8.80;;;3.08;;
39772;SDS011;25451;51.960;6.250;2022-08-25T06:06:17;6.82;;;3.10;;
39772;SDS011;25451;51.960;6.250;2022-08-25T06:08:43;7.90;;;3.90;;
39772;SDS011;25451;51.960;6.250;2022-08-25T06:11:09;8.50;;;4.20;;
39772;SDS011;25451;51.960;6.250;2022-08-25T06:13:36;7.22;;;4.22;;
39772;SDS011;25451;51.960;6.250;2022-08-25T06:16:02;12.32;;;4.68;;
39772;SDS011;25451;51.960;6.250;2022-08-25T06:18:27;8.67;;;4.57;;
39772;SDS011;25451;51.960;6.250;2022-08-25T06:20:52;6.50;;;3.90;;
39772;SDS011;25451;51.960;6.250;2022-08-25T06:23:18;4.87;;;3.50;;
39772;SDS011;25451;51.960;6.250;2022-08-25T06:25:50;5.27;;;3.20;;
39772;SDS011;25451;51.960;6.250;2022-08-25T06:28:17;5.38;;;3.35;;
39772;SDS011;25451;51.960;6.250;2022-08-25T06:30:43;9.13;;;3.20;;
39772;SDS011;25451;51.960;6.250;2022-08-25T06:33:09;7.30;;;3.23;;
39772;SDS011;25451;51.960;6.250;2022-08-25T06:35:35;7.75;;;3.20;;
39772;SDS011;25451;51.960;6.250;2022-08-25T06:38:00;8.43;;;3.10;;
39772;SDS011;25451;51.960;6.250;2022-08-25T06:40:26;5.00;;;3.10;;
39772;SDS011;25451;51.960;6.250;2022-08-25T06:42:51;10.17;;;2.80;;
39772;SDS011;25451;51.960;6.250;2022-08-25T06:45:17;8.13;;;3.40;;
39772;SDS011;25451;51.960;6.250;2022-08-25T06:47:42;7.82;;;3.30;;
39772;SDS011;25451;51.960;6.250;2022-08-25T06:50:08;4.30;;;2.73;;
39772;SDS011;25451;51.960;6.250;2022-08-25T06:52:34;13.47;;;3.23;;
39772;SDS011;25451;51.960;6.250;2022-08-25T06:54:59;6.43;;;3.20;;
39772;SDS011;25451;51.960;6.250;2022-08-25T06:57:25;5.73;;;2.90;;
39772;SDS011;25451;51.960;6.250;2022-08-25T06:59:50;7.07;;;3.30;;
39772;SDS011;25451;51.960;6.250;2022-08-25T07:02:16;5.93;;;3.47;;
39772;SDS011;25451;51.960;6.250;2022-08-25T07:04:41;6.33;;;3.20;;
39772;SDS011;25451;51.960;6.250;2022-08-25T07:07:06;8.60;;;3.60;;
39772;SDS011;25451;51.960;6.250;2022-08-25T07:09:32;7.97;;;3.63;;
39772;SDS011;25451;51.960;6.250;2022-08-25T07:11:58;5.10;;;3.30;;
39772;SDS011;25451;51.960;6.250;2022-08-25T07:14:23;7.30;;;3.30;;
39772;SDS011;25451;51.960;6.250;2022-08-25T07:16:49;8.33;;;3.30;;
39772;SDS011;25451;51.960;6.250;2022-08-25T07:19:14;6.17;;;3.40;;
39772;SDS011;25451;51.960;6.250;2022-08-25T07:21:40;5.60;;;3.27;;
39772;SDS011;25451;51.960;6.250;2022-08-25T07:24:07;9.45;;;3.55;;
39772;SDS011;25451;51.960;6.250;2022-08-25T07:26:34;7.50;;;3.63;;
39772;SDS011;25451;51.960;6.250;2022-08-25T07:29:01;6.68;;;3.10;;
39772;SDS011;25451;51.960;6.250;2022-08-25T07:31:28;7.00;;;3.50;;
39772;SDS011;25451;51.960;6.250;2022-08-25T07:33:54;9.90;;;3.27;;
39772;SDS011;25451;51.960;6.250;2022-08-25T07:36:38;7.72;;;3.20;;
39772;SDS011;25451;51.960;6.250;2022-08-25T07:39:03;10.07;;;3.27;;
39772;SDS011;25451;51.960;6.250;2022-08-25T07:41:30;4.57;;;2.90;;
39772;SDS011;25451;51.960;6.250;2022-08-25T07:43:56;6.00;;;3.00;;
39772;SDS011;25451;51.960;6.250;2022-08-25T07:46:22;7.47;;;2.90;;
39772;SDS011;25451;51.960;6.250;2022-08-25T07:48:47;6.70;;;3.35;;
39772;SDS011;25451;51.960;6.250;2022-08-25T07:51:12;6.40;;;3.13;;
39772;SDS011;25451;51.960;6.250;2022-08-25T07:53:41;7.07;;;3.30;;
39772;SDS011;25451;51.960;6.250;2022-08-25T07:56:11;6.20;;;3.25;;
39772;SDS011;25451;51.960;6.250;2022-08-25T07:58:38;5.15;;;3.10;;
39772;SDS011;25451;51.960;6.250;2022-08-25T08:01:05;7.82;;;3.10;;
39772;SDS011;25451;51.960;6.250;2022-08-25T08:03:31;5.00;;;3.00;;
39772;SDS011;25451;51.960;6.250;2022-08-25T08:05:58;6.77;;;3.13;;
39772;SDS011;25451;51.960;6.250;2022-08-25T08:08:24;6.28;;;2.88;;
39772;SDS011;25451;51.960;6.250;2022-08-25T08:10:49;4.37;;;2.90;;
39772;SDS011;25451;51.960;6.250;2022-08-25T08:13:15;7.57;;;3.00;;
39772;SDS011;25451;51.960;6.250;2022-08-25T08:15:41;5.38;;;3.03;;
39772;SDS011;25451;51.960;6.250;2022-08-25T08:18:07;6.28;;;2.97;;
39772;SDS011;25451;51.960;6.250;2022-08-25T08:20:33;5.63;;;2.97;;
39772;SDS011;25451;51.960;6.250;2022-08-25T08:22:58;6.63;;;2.83;;
39772;SDS011;25451;51.960;6.250;2022-08-25T08:25:24;5.43;;;2.60;;
39772;SDS011;25451;51.960;6.250;2022-08-25T08:27:49;7.57;;;2.80;;
39772;SDS011;25451;51.960;6.250;2022-08-25T08:30:15;6.73;;;3.10;;
39772;SDS011;25451;51.960;6.250;2022-08-25T08:32:41;6.13;;;2.67;;
39772;SDS011;25451;51.960;6.250;2022-08-25T08:35:07;6.07;;;2.60;;
39772;SDS011;25451;51.960;6.250;2022-08-25T08:37:33;8.30;;;3.00;;
39772;SDS011;25451;51.960;6.250;2022-08-25T08:39:58;5.93;;;2.65;;
39772;SDS011;25451;51.960;6.250;2022-08-25T08:55:44;5.75;;;2.92;;
39772;SDS011;25451;51.960;6.250;2022-08-25T08:58:15;4.40;;;2.70;;
39772;SDS011;25451;51.960;6.250;2022-08-25T09:01:02;6.10;;;2.90;;
39772;SDS011;25451;51.960;6.250;2022-08-25T09:06:05;7.15;;;3.25;;
39772;SDS011;25451;51.960;6.250;2022-08-25T09:08:35;8.55;;;2.65;;
39772;SDS011;25451;51.960;6.250;2022-08-25T09:14:13;10.02;;;2.85;;
39772;SDS011;25451;51.960;6.250;2022-08-25T09:16:52;10.17;;;2.80;;
39772;SDS011;25451;51.960;6.250;2022-08-25T09:19:44;5.88;;;2.60;;
39772;SDS011;25451;51.960;6.250;2022-08-25T09:25:25;6.07;;;2.70;;
39772;SDS011;25451;51.960;6.250;2022-08-25T09:28:06;7.07;;;2.75;;
39772;SDS011;25451;51.960;6.250;2022-08-25T09:33:20;8.93;;;3.00;;
39772;SDS011;25451;51.960;6.250;2022-08-25T09:35:47;6.13;;;2.70;;
39772;SDS011;25451;51.960;6.250;2022-08-25T09:38:14;5.10;;;2.60;;
39772;SDS011;25451;51.960;6.250;2022-08-25T09:40:42;7.10;;;2.70;;
39772;SDS011;25451;51.960;6.250;2022-08-25T09:43:23;6.15;;;2.92;;
39772;SDS011;25451;51.960;6.250;2022-08-25T09:46:00;4.32;;;2.40;;
39772;SDS011;25451;51.960;6.250;2022-08-25T09:48:33;4.47;;;2.70;;
39772;SDS011;25451;51.960;6.250;2022-08-25T09:51:11;4.15;;;2.40;;
39772;SDS011;25451;51.960;6.250;2022-08-25T09:54:04;4.97;;;2.58;;
39772;SDS011;25451;51.960;6.250;2022-08-25T09:56:55;4.95;;;2.65;;
39772;SDS011;25451;51.960;6.250;2022-08-25T09:59:24;6.72;;;2.53;;
39772;SDS011;25451;51.960;6.250;2022-08-25T10:01:59;5.20;;;2.60;;
39772;SDS011;25451;51.960;6.250;2022-08-25T10:04:27;6.38;;;3.03;;
39772;SDS011;25451;51.960;6.250;2022-08-25T10:06:58;5.32;;;2.63;;
39772;SDS011;25451;51.960;6.250;2022-08-25T10:09:37;4.38;;;2.47;;
39772;SDS011;25451;51.960;6.250;2022-08-25T10:12:50;3.58;;;2.28;;
39772;SDS011;25451;51.960;6.250;2022-08-25T10:14:56;6.47;;;2.50;;
39772;SDS011;25451;51.960;6.250;2022-08-25T10:17:28;6.53;;;2.43;;
39772;SDS011;25451;51.960;6.250;2022-08-25T10:20:12;5.00;;;2.55;;
39772;SDS011;25451;51.960;6.250;2022-08-25T10:22:44;4.50;;;2.67;;
39772;SDS011;25451;51.960;6.250;2022-08-25T10:25:12;5.00;;;2.65;;
39772;SDS011;25451;51.960;6.250;2022-08-25T10:30:41;5.43;;;2.33;;
39772;SDS011;25451;51.960;6.250;2022-08-25T10:35:58;6.27;;;2.30;;
39772;SDS011;25451;51.960;6.250;2022-08-25T10:50:08;6.93;;;2.30;;
39772;SDS011;25451;51.960;6.250;2022-08-25T10:52:56;4.80;;;2.28;;
39772;SDS011;25451;51.960;6.250;2022-08-25T10:58:42;7.75;;;2.33;;
39772;SDS011;25451;51.960;6.250;2022-08-25T11:04:11;3.97;;;2.10;;
39772;SDS011;25451;51.960;6.250;2022-08-25T11:06:45;4.18;;;2.08;;
39772;SDS011;25451;51.960;6.250;2022-08-25T11:09:19;4.50;;;2.00;;
39772;SDS011;25451;51.960;6.250;2022-08-25T11:11:51;3.28;;;2.00;;
39772;SDS011;25451;51.960;6.250;2022-08-25T11:14:27;2.57;;;1.67;;
39772;SDS011;25451;51.960;6.250;2022-08-25T11:17:09;5.00;;;1.70;;
39772;SDS011;25451;51.960;6.250;2022-08-25T11:19:42;3.60;;;2.22;;
39772;SDS011;25451;51.960;6.250;2022-08-25T11:22:15;2.83;;;1.90;;
39772;SDS011;25451;51.960;6.250;2022-08-25T11:27:22;4.30;;;1.90;;
39772;SDS011;25451;51.960;6.250;2022-08-25T11:29:56;3.70;;;1.95;;
39772;SDS011;25451;51.960;6.250;2022-08-25T11:32:27;2.80;;;2.00;;
39772;SDS011;25451;51.960;6.250;2022-08-25T11:34:57;5.88;;;2.00;;
39772;SDS011;25451;51.960;6.250;2022-08-25T11:37:25;3.42;;;1.80;;
39772;SDS011;25451;51.960;6.250;2022-08-25T11:45:47;3.72;;;2.10;;
39772;SDS011;25451;51.960;6.250;2022-08-25T11:48:34;3.13;;;2.00;;
39772;SDS011;25451;51.960;6.250;2022-08-25T11:51:10;4.10;;;2.25;;
39772;SDS011;25451;51.960;6.250;2022-08-25T11:53:51;3.97;;;2.00;;
39772;SDS011;25451;51.960;6.250;2022-08-25T11:56:39;3.92;;;2.25;;
39772;SDS011;25451;51.960;6.250;2022-08-25T11:59:06;3.80;;;2.15;;
39772;SDS011;25451;51.960;6.250;2022-08-25T12:09:31;3.28;;;1.85;;
39772;SDS011;25451;51.960;6.250;2022-08-25T12:11:58;3.47;;;2.03;;
39772;SDS011;25451;51.960;6.250;2022-08-25T12:14:44;5.55;;;1.90;;
39772;SDS011;25451;51.960;6.250;2022-08-25T12:17:16;4.05;;;1.80;;
39772;SDS011;25451;51.960;6.250;2022-08-25T12:19:51;3.87;;;1.80;;
39772;SDS011;25451;51.960;6.250;2022-08-25T12:29:50;3.85;;;1.92;;
39772;SDS011;25451;51.960;6.250;2022-08-25T12:35:14;4.55;;;2.00;;
39772;SDS011;25451;51.960;6.250;2022-08-25T12:37:57;4.90;;;2.10;;
39772;SDS011;25451;51.960;6.250;2022-08-25T12:40:34;3.97;;;2.00;;
39772;SDS011;25451;51.960;6.250;2022-08-25T12:45:45;6.47;;;2.13;;
39772;SDS011;25451;51.960;6.250;2022-08-25T12:51:05;3.65;;;2.00;;
39772;SDS011;25451;51.960;6.250;2022-08-25T12:53:37;4.30;;;2.00;;
39772;SDS011;25451;51.960;6.250;2022-08-25T12:58:35;7.40;;;1.90;;
39772;SDS011;25451;51.960;6.250;2022-08-25T13:03:59;2.65;;;1.60;;
39772;SDS011;25451;51.960;6.250;2022-08-25T13:12:45;2.60;;;1.47;;
39772;SDS011;25451;51.960;6.250;2022-08-25T13:15:25;2.10;;;1.48;;
39772;SDS011;25451;51.960;6.250;2022-08-25T13:18:15;2.13;;;1.33;;
39772;SDS011;25451;51.960;6.250;2022-08-25T13:20:45;2.20;;;1.30;;
39772;SDS011;25451;51.960;6.250;2022-08-25T13:23:15;3.78;;;1.40;;
39772;SDS011;25451;51.960;6.250;2022-08-25T13:25:48;3.17;;;1.73;;
39772;SDS011;25451;51.960;6.250;2022-08-25T13:28:36;3.47;;;1.70;;
39772;SDS011;25451;51.960;6.250;2022-08-25T13:31:05;4.05;;;1.80;;
39772;SDS011;25451;51.960;6.250;2022-08-25T13:33:34;2.90;;;1.75;;
39772;SDS011;25451;51.960;6.250;2022-08-25T13:36:00;3.83;;;1.88;;
39772;SDS011;25451;51.960;6.250;2022-08-25T13:38:45;2.87;;;1.53;;
39772;SDS011;25451;51.960;6.250;2022-08-25T13:41:16;2.80;;;1.70;;
39772;SDS011;25451;51.960;6.250;2022-08-25T13:43:47;3.35;;;1.63;;
39772;SDS011;25451;51.960;6.250;2022-08-25T13:46:17;3.03;;;1.85;;
39772;SDS011;25451;51.960;6.250;2022-08-25T13:48:43;3.63;;;1.80;;
39772;SDS011;25451;51.960;6.250;2022-08-25T13:51:16;3.07;;;1.83;;
39772;SDS011;25451;51.960;6.250;2022-08-25T13:53:49;3.60;;;1.92;;
39772;SDS011;25451;51.960;6.250;2022-08-25T13:56:24;2.80;;;2.00;;
39772;SDS011;25451;51.960;6.250;2022-08-25T13:59:01;4.88;;;2.10;;
39772;SDS011;25451;51.960;6.250;2022-08-25T14:01:29;3.30;;;2.10;;
39772;SDS011;25451;51.960;6.250;2022-08-25T14:09:57;3.03;;;2.23;;
39772;SDS011;25451;51.960;6.250;2022-08-25T14:12:42;5.57;;;2.10;;
39772;SDS011;25451;51.960;6.250;2022-08-25T14:17:41;4.10;;;2.30;;
39772;SDS011;25451;51.960;6.250;2022-08-25T14:20:16;3.88;;;2.20;;
39772;SDS011;25451;51.960;6.250;2022-08-25T14:22:53;3.43;;;2.20;;
39772;SDS011;25451;51.960;6.250;2022-08-25T14:25:32;3.60;;;2.10;;
39772;SDS011;25451;51.960;6.250;2022-08-25T14:28:01;3.65;;;2.20;;
39772;SDS011;25451;51.960;6.250;2022-08-25T14:30:29;3.10;;;2.03;;
39772;SDS011;25451;51.960;6.250;2022-08-25T14:32:56;3.00;;;1.90;;
39772;SDS011;25451;51.960;6.250;2022-08-25T14:35:22;3.83;;;2.00;;
39772;SDS011;25451;51.960;6.250;2022-08-25T14:37:48;4.88;;;1.90;;
39772;SDS011;25451;51.960;6.250;2022-08-25T14:40:13;4.03;;;2.30;;
39772;SDS011;25451;51.960;6.250;2022-08-25T14:42:43;3.10;;;1.90;;
39772;SDS011;25451;51.960;6.250;2022-08-25T14:45:09;3.50;;;2.07;;
39772;SDS011;25451;51.960;6.250;2022-08-25T14:47:34;5.43;;;2.20;;
39772;SDS011;25451;51.960;6.250;2022-08-25T14:49:59;3.28;;;1.80;;
39772;SDS011;25451;51.960;6.250;2022-08-25T14:52:26;5.37;;;2.50;;
39772;SDS011;25451;51.960;6.250;2022-08-25T14:54:53;4.88;;;2.40;;
39772;SDS011;25451;51.960;6.250;2022-08-25T14:57:21;3.55;;;2.10;;
39772;SDS011;25451;51.960;6.250;2022-08-25T14:59:47;4.53;;;2.10;;
39772;SDS011;25451;51.960;6.250;2022-08-25T15:02:14;4.10;;;2.10;;
39772;SDS011;25451;51.960;6.250;2022-08-25T15:04:44;5.00;;;2.30;;
39772;SDS011;25451;51.960;6.250;2022-08-25T15:07:15;3.28;;;1.90;;
39772;SDS011;25451;51.960;6.250;2022-08-25T15:09:59;5.80;;;2.40;;
39772;SDS011;25451;51.960;6.250;2022-08-25T15:12:24;4.17;;;1.97;;
39772;SDS011;25451;51.960;6.250;2022-08-25T15:14:50;3.13;;;1.90;;
39772;SDS011;25451;51.960;6.250;2022-08-25T15:17:15;3.47;;;1.90;;
39772;SDS011;25451;51.960;6.250;2022-08-25T15:19:42;3.03;;;1.85;;
39772;SDS011;25451;51.960;6.250;2022-08-25T15:22:07;2.97;;;2.03;;
39772;SDS011;25451;51.960;6.250;2022-08-25T15:24:33;3.30;;;1.90;;
39772;SDS011;25451;51.960;6.250;2022-08-25T15:26:59;3.47;;;2.08;;
39772;SDS011;25451;51.960;6.250;2022-08-25T15:29:28;3.20;;;2.00;;
39772;SDS011;25451;51.960;6.250;2022-08-25T15:31:55;3.35;;;2.13;;
39772;SDS011;25451;51.960;6.250;2022-08-25T15:34:22;3.33;;;1.80;;
39772;SDS011;25451;51.960;6.250;2022-08-25T15:36:47;3.33;;;2.10;;
39772;SDS011;25451;51.960;6.250;2022-08-25T15:39:13;3.50;;;2.20;;
39772;SDS011;25451;51.960;6.250;2022-08-25T15:41:39;3.10;;;2.03;;
39772;SDS011;25451;51.960;6.250;2022-08-25T15:44:04;4.13;;;2.00;;
39772;SDS011;25451;51.960;6.250;2022-08-25T15:46:33;2.72;;;2.00;;
39772;SDS011;25451;51.960;6.250;2022-08-25T15:49:00;6.68;;;1.90;;
39772;SDS011;25451;51.960;6.250;2022-08-25T15:51:26;3.90;;;2.10;;
39772;SDS011;25451;51.960;6.250;2022-08-25T15:53:52;3.38;;;1.90;;
39772;SDS011;25451;51.960;6.250;2022-08-25T15:56:18;3.47;;;2.00;;
39772;SDS011;25451;51.960;6.250;2022-08-25T15:58:45;3.13;;;1.80;;
39772;SDS011;25451;51.960;6.250;2022-08-25T16:01:17;3.55;;;1.90;;
39772;SDS011;25451;51.960;6.250;2022-08-25T16:03:45;4.50;;;2.00;;
39772;SDS011;25451;51.960;6.250;2022-08-25T16:06:11;3.03;;;1.90;;
39772;SDS011;25451;51.960;6.250;2022-08-25T16:08:36;2.87;;;1.90;;
39772;SDS011;25451;51.960;6.250;2022-08-25T16:11:02;3.47;;;2.00;;
39772;SDS011;25451;51.960;6.250;2022-08-25T16:13:28;4.57;;;1.83;;
39772;SDS011;25451;51.960;6.250;2022-08-25T16:15:53;4.47;;;2.20;;
39772;SDS011;25451;51.960;6.250;2022-08-25T16:18:19;5.32;;;1.90;;
39772;SDS011;25451;51.960;6.250;2022-08-25T16:20:46;2.60;;;1.80;;
39772;SDS011;25451;51.960;6.250;2022-08-25T16:23:12;4.25;;;2.00;;
39772;SDS011;25451;51.960;6.250;2022-08-25T16:25:40;4.03;;;2.03;;
39772;SDS011;25451;51.960;6.250;2022-08-25T16:28:08;3.60;;;1.95;;
39772;SDS011;25451;51.960;6.250;2022-08-25T16:30:34;3.83;;;1.90;;
39772;SDS011;25451;51.960;6.250;2022-08-25T16:33:00;3.03;;;2.00;;
39772;SDS011;25451;51.960;6.250;2022-08-25T16:35:26;6.47;;;2.35;;
39772;SDS011;25451;51.960;6.250;2022-08-25T16:37:52;3.33;;;2.13;;
39772;SDS011;25451;51.960;6.250;2022-08-25T16:40:17;3.85;;;1.80;;